Time;durP1;ratioP1;P1;durP2;ratioP2;P2;SDS_P1;SDS_P2;PMS_P1;PMS_P2;Temp;Humidity;BMP_temperature;BMP_pressure;BME280_temperature;BME280_humidity;BME280_pressure;Samples;Min_cycle;Max_cycle;Signal;HPM_P1;HPM_P2
2021/03/15 00:01:48;;;;;;;1.98;0.63;;;6.10;90.90;;;;;;5014660;28;20041;-84
2021/03/15 00:04:16;;;;;;;3.60;0.80;;;6.10;90.90;;;;;;5013047;28;20053;-85
2021/03/15 00:06:57;;;;;;;3.40;0.95;;;6.10;90.80;;;;;;4970823;28;20097;-83
2021/03/15 00:09:25;;;;;;;4.13;0.93;;;6.00;90.80;;;;;;5014267;28;20481;-85
2021/03/15 00:12:26;;;;;;;2.53;0.70;;;6.00;91.00;;;;;;5013487;28;20049;-84
2021/03/15 00:15:05;;;;;;;2.63;0.70;;;6.10;90.90;;;;;;5014368;28;20520;-86
2021/03/15 00:17:31;;;;;;;3.13;0.85;;;6.10;91.00;;;;;;5012112;28;20099;-84
2021/03/15 00:19:56;;;;;;;4.43;0.90;;;6.00;91.00;;;;;;5013671;28;20050;-84
2021/03/15 00:22:22;;;;;;;3.78;0.82;;;6.00;90.90;;;;;;5014326;28;20497;-84
2021/03/15 00:24:54;;;;;;;3.28;0.90;;;6.10;90.90;;;;;;5013743;28;20049;-84
2021/03/15 00:27:27;;;;;;;3.47;0.75;;;6.00;90.90;;;;;;5013572;28;20077;-84
2021/03/15 00:29:52;;;;;;;2.78;0.90;;;6.10;91.00;;;;;;5013594;28;20509;-84
2021/03/15 00:38:27;;;;;;;4.85;1.00;;;6.00;91.00;;;;;;5009681;28;20053;-85
2021/03/15 00:46:17;;;;;;;4.70;0.88;;;6.00;90.90;;;;;;5012983;28;20068;-84
2021/03/15 00:48:43;;;;;;;3.33;0.80;;;5.90;90.90;;;;;;5013362;28;20103;-82
2021/03/15 00:51:18;;;;;;;3.75;0.75;;;5.90;90.80;;;;;;5013617;28;20477;-83
2021/03/15 00:54:14;;;;;;;;;;;;;;;;;;;;;
2021/03/15 01:04:18;;;;;;;2.92;0.70;;;5.90;91.10;;;;;;4924599;28;20047;-83
2021/03/15 01:06:56;;;;;;;1.52;0.63;;;5.80;91.00;;;;;;4992746;28;20057;-83
2021/03/15 01:09:21;;;;;;;2.58;0.80;;;5.90;91.30;;;;;;5012295;28;20528;-82
2021/03/15 01:11:56;;;;;;;1.92;0.75;;;5.90;91.30;;;;;;5013229;28;20084;-83
2021/03/15 01:14:22;;;;;;;3.92;0.65;;;5.90;91.20;;;;;;5011327;28;20497;-83
2021/03/15 01:17:00;;;;;;;4.40;0.80;;;5.90;91.20;;;;;;5012952;28;20081;-83
2021/03/15 01:19:41;;;;;;;3.15;0.73;;;5.90;91.00;;;;;;5011742;28;20086;-84
2021/03/15 01:22:16;;;;;;;2.60;0.80;;;5.90;91.20;;;;;;5012182;28;20121;-84
2021/03/15 01:24:54;;;;;;;2.80;0.70;;;6.00;91.40;;;;;;5013001;28;20061;-83
2021/03/15 01:27:19;;;;;;;1.75;0.60;;;6.00;91.40;;;;;;5011452;28;20065;-83
2021/03/15 01:30:23;;;;;;;3.42;0.80;;;6.00;91.40;;;;;;5011309;28;20417;-83
2021/03/15 01:33:00;;;;;;;1.27;0.50;;;6.00;91.60;;;;;;4990682;28;20046;-84
2021/03/15 01:35:26;;;;;;;3.25;0.65;;;6.00;91.60;;;;;;4979917;28;20081;-84
2021/03/15 01:37:52;;;;;;;1.98;0.50;;;5.90;91.50;;;;;;5012535;28;20144;-83
2021/03/15 01:40:22;;;;;;;1.67;0.60;;;6.00;91.50;;;;;;5006959;28;20593;-83
2021/03/15 01:42:48;;;;;;;2.78;0.70;;;6.00;91.70;;;;;;5011535;28;20604;-84
2021/03/15 01:45:17;;;;;;;1.27;0.52;;;6.00;91.60;;;;;;4997823;28;20133;-83
2021/03/15 01:47:49;;;;;;;2.17;0.60;;;6.00;91.60;;;;;;5001018;28;20413;-84
2021/03/15 01:50:28;;;;;;;3.25;0.80;;;6.00;92.00;;;;;;5006551;28;20038;-84
2021/03/15 01:53:11;;;;;;;2.05;0.68;;;6.00;92.00;;;;;;5005621;28;20056;-83
2021/03/15 02:06:17;;;;;;;1.85;0.60;;;5.90;91.50;;;;;;5214926;23;20070;-83
2021/03/15 02:08:53;;;;;;;4.03;0.55;;;5.90;91.40;;;;;;5006975;28;20046;-83
2021/03/15 02:11:53;;;;;;;1.42;0.50;;;5.90;91.50;;;;;;5007050;28;20054;-83
2021/03/15 02:14:50;;;;;;;2.33;0.60;;;5.90;91.30;;;;;;4992598;28;20498;-84
2021/03/15 02:17:36;;;;;;;0.50;0.40;;;5.90;91.40;;;;;;4997043;28;20064;-84
2021/03/15 02:20:23;;;;;;;2.15;0.60;;;5.90;91.30;;;;;;4991543;28;20066;-84
2021/03/15 02:23:24;;;;;;;1.90;0.50;;;5.80;91.20;;;;;;5000052;28;20045;-84
2021/03/15 02:26:24;;;;;;;2.28;0.65;;;5.80;91.30;;;;;;5011188;28;20046;-84
2021/03/15 02:29:22;;;;;;;2.63;0.60;;;5.80;91.30;;;;;;5007921;28;20050;-84
2021/03/15 02:32:19;;;;;;;3.28;0.77;;;5.80;91.20;;;;;;5011451;28;20092;-83
2021/03/15 02:38:04;;;;;;;1.92;0.60;;;5.80;91.10;;;;;;4974786;28;20130;-84
2021/03/15 02:40:52;;;;;;;1.23;0.60;;;5.80;91.20;;;;;;4994843;28;20493;-84
2021/03/15 02:43:31;;;;;;;1.35;0.52;;;5.80;91.20;;;;;;4996124;28;20089;-84
2021/03/15 02:46:18;;;;;;;3.17;0.70;;;5.80;91.20;;;;;;5013977;22;20090;-84
2021/03/15 02:49:06;;;;;;;3.83;0.95;;;5.80;91.20;;;;;;5006286;28;20050;-83
2021/03/15 02:54:25;;;;;;;2.95;0.70;;;5.70;91.20;;;;;;5005489;28;20050;-84
2021/03/15 02:56:55;;;;;;;1.60;0.55;;;5.70;91.20;;;;;;4998519;28;20382;-83
2021/03/15 02:59:22;;;;;;;2.10;0.73;;;5.70;91.20;;;;;;4994951;28;20057;-83
2021/03/15 03:01:59;;;;;;;2.10;0.70;;;5.70;91.20;;;;;;5002270;28;20427;-84
2021/03/15 03:04:27;;;;;;;3.13;0.80;;;5.60;91.10;;;;;;5006170;28;20489;-83
2021/03/15 03:06:56;;;;;;;2.35;0.75;;;5.60;91.20;;;;;;5010112;28;20085;-83
2021/03/15 03:09:48;;;;;;;2.50;0.75;;;5.60;91.40;;;;;;5015315;28;20429;-83
2021/03/15 03:12:17;;;;;;;2.40;0.73;;;5.60;91.30;;;;;;5015418;28;20053;-83
2021/03/15 03:18:48;;;;;;;4.72;1.10;;;5.60;91.30;;;;;;5015040;28;20124;-83
2021/03/15 03:21:14;;;;;;;1.92;0.80;;;5.50;91.20;;;;;;4966569;28;20506;-83
2021/03/15 03:27:21;;;;;;;5.13;1.38;;;5.50;91.20;;;;;;5003991;28;20052;-84
2021/03/15 03:29:52;;;;;;;5.40;1.10;;;5.40;91.10;;;;;;5014338;28;20045;-84
2021/03/15 03:32:20;;;;;;;5.10;1.25;;;5.40;91.10;;;;;;5014891;28;20442;-84
2021/03/15 03:34:49;;;;;;;4.65;1.10;;;5.40;91.10;;;;;;5014271;28;20050;-83
2021/03/15 03:37:27;;;;;;;6.10;1.58;;;5.40;91.10;;;;;;5014806;28;20397;-84
2021/03/15 03:39:58;;;;;;;6.20;1.70;;;5.40;91.10;;;;;;5015111;28;20064;-84
2021/03/15 03:42:27;;;;;;;4.72;1.02;;;5.40;91.10;;;;;;5013831;28;20056;-84
2021/03/15 03:44:56;;;;;;;5.60;1.58;;;5.40;91.10;;;;;;5014716;28;20100;-83
2021/03/15 03:47:22;;;;;;;6.63;1.80;;;5.30;91.10;;;;;;5014154;28;20069;-84
2021/03/15 03:49:48;;;;;;;8.93;2.35;;;5.30;91.10;;;;;;5014450;28;20046;-85
2021/03/15 03:52:23;;;;;;;6.57;1.80;;;5.30;91.00;;;;;;5013691;28;20060;-84
2021/03/15 03:54:56;;;;;;;6.93;1.85;;;5.30;91.00;;;;;;5014886;28;20045;-84
2021/03/15 03:57:31;;;;;;;5.75;2.00;;;5.30;91.00;;;;;;5014257;28;20053;-83
2021/03/15 04:00:00;;;;;;;8.10;2.10;;;5.30;91.10;;;;;;5014812;28;20565;-84
2021/03/15 04:02:27;;;;;;;13.68;3.05;;;5.30;91.10;;;;;;5014030;28;20413;-83
2021/03/15 04:05:09;;;;;;;11.43;2.65;;;5.30;91.20;;;;;;5014143;28;20049;-84
2021/03/15 04:07:44;;;;;;;10.45;2.72;;;5.30;91.20;;;;;;5014630;28;20050;-84
2021/03/15 04:10:19;;;;;;;13.45;2.90;;;5.20;91.20;;;;;;5012966;28;20046;-83
2021/03/15 04:12:56;;;;;;;11.30;2.70;;;5.20;91.30;;;;;;5013685;28;20052;-83
2021/03/15 04:15:24;;;;;;;7.57;1.92;;;5.20;91.40;;;;;;5014183;28;20053;-83
2021/03/15 04:17:51;;;;;;;18.17;3.55;;;5.20;91.40;;;;;;5013615;28;20561;-84
2021/03/15 04:20:35;;;;;;;12.98;3.05;;;5.20;91.80;;;;;;5013765;28;20049;-84
2021/03/15 04:23:20;;;;;;;8.95;2.40;;;5.20;91.40;;;;;;5013532;28;20143;-85
2021/03/15 04:25:57;;;;;;;9.40;2.80;;;5.20;91.40;;;;;;5013658;28;20050;-84
2021/03/15 04:28:26;;;;;;;12.82;2.75;;;5.20;91.40;;;;;;5013431;28;20046;-84
2021/03/15 04:30:52;;;;;;;13.45;3.17;;;5.20;91.40;;;;;;5013123;28;20041;-82
2021/03/15 04:33:18;;;;;;;13.82;3.38;;;5.10;91.40;;;;;;5013933;28;20060;-83
2021/03/15 04:35:57;;;;;;;12.07;2.92;;;5.10;91.50;;;;;;5014140;28;20073;-82
2021/03/15 04:38:24;;;;;;;12.90;3.20;;;5.10;91.40;;;;;;5013270;28;20382;-83
2021/03/15 04:40:56;;;;;;;16.35;3.40;;;5.10;91.40;;;;;;5013504;28;20046;-82
2021/03/15 04:43:54;;;;;;;12.48;2.90;;;5.10;91.90;;;;;;5013382;28;20056;-83
2021/03/15 04:46:21;;;;;;;15.93;3.17;;;5.10;91.50;;;;;;5007757;28;20394;-83
2021/03/15 04:48:47;;;;;;;9.65;3.17;;;5.10;91.40;;;;;;5013679;28;20466;-82
2021/03/15 04:51:26;;;;;;;12.57;3.15;;;5.00;91.40;;;;;;5012072;28;20433;-83
2021/03/15 04:54:05;;;;;;;10.98;2.92;;;5.10;91.40;;;;;;5013522;28;20057;-84
2021/03/15 04:56:42;;;;;;;16.35;3.33;;;5.00;91.50;;;;;;5013271;28;20085;-84
2021/03/15 04:59:19;;;;;;;12.00;3.50;;;5.00;91.50;;;;;;5012564;28;20058;-84
2021/03/15 05:01:49;;;;;;;10.68;3.08;;;5.00;91.50;;;;;;5013486;28;20046;-84
2021/03/15 05:04:19;;;;;;;8.68;2.33;;;5.00;91.50;;;;;;5012135;28;20057;-83
2021/03/15 05:06:58;;;;;;;20.40;3.42;;;5.00;91.40;;;;;;5012922;28;20136;-83
2021/03/15 05:09:56;;;;;;;13.48;2.83;;;5.00;91.50;;;;;;5013250;28;20050;-84
2021/03/15 05:12:22;;;;;;;13.20;3.15;;;5.00;91.50;;;;;;5011745;28;20377;-83
2021/03/15 05:14:49;;;;;;;12.15;2.80;;;5.00;91.60;;;;;;5013210;28;20498;-84
2021/03/15 05:17:37;;;;;;;;;;;;;;;;;;;;;
2021/03/15 05:20:24;;;;;;;11.52;2.72;;;5.00;91.50;;;;;;4991097;28;20053;-84
2021/03/15 05:22:53;;;;;;;23.00;3.13;;;5.00;91.40;;;;;;5013308;28;20061;-83
2021/03/15 05:25:26;;;;;;;14.55;2.80;;;4.90;91.50;;;;;;4995915;28;20057;-83
2021/03/15 05:27:52;;;;;;;16.93;3.37;;;4.90;91.60;;;;;;5005823;28;20486;-83
2021/03/15 05:30:21;;;;;;;19.02;3.20;;;5.00;91.50;;;;;;5001604;28;20050;-85
2021/03/15 05:32:51;;;;;;;15.60;3.03;;;4.90;91.60;;;;;;4993602;28;20129;-83
2021/03/15 05:35:18;;;;;;;16.02;2.88;;;5.00;91.60;;;;;;4992339;28;20391;-83
2021/03/15 05:37:51;;;;;;;14.38;2.55;;;4.90;91.60;;;;;;4993340;28;20050;-84
2021/03/15 05:40:23;;;;;;;17.15;3.30;;;5.00;91.60;;;;;;5000537;28;20148;-84
2021/03/15 05:43:26;;;;;;;20.73;2.88;;;4.90;91.60;;;;;;5012841;28;20523;-83
2021/03/15 06:05:35;;;;;;;18.52;2.63;;;4.80;91.70;;;;;;5234192;23;20047;-84
2021/03/15 06:08:22;;;;;;;22.83;2.47;;;4.80;91.70;;;;;;4966721;28;20046;-83
2021/03/15 06:11:00;;;;;;;20.10;3.00;;;4.80;91.70;;;;;;4957881;28;20121;-83
2021/03/15 06:16:58;;;;;;;18.00;2.88;;;4.80;91.70;;;;;;4872823;29;20056;-84
2021/03/15 06:19:24;;;;;;;18.73;3.03;;;4.80;91.70;;;;;;4916867;29;20083;-84
2021/03/15 06:21:55;;;;;;;16.25;2.78;;;4.80;91.70;;;;;;4917950;29;20055;-84
2021/03/15 06:24:21;;;;;;;19.08;2.75;;;4.70;91.70;;;;;;4909278;29;20052;-84
2021/03/15 06:30:19;;;;;;;20.65;3.33;;;4.80;91.70;;;;;;4832808;29;20057;-83
2021/03/15 06:32:50;;;;;;;21.40;3.30;;;4.70;91.70;;;;;;4969605;28;20058;-83
2021/03/15 06:35:17;;;;;;;20.50;3.03;;;4.70;91.80;;;;;;4975438;28;20050;-83
2021/03/15 06:38:03;;;;;;;18.52;3.58;;;4.70;91.90;;;;;;4971988;28;20130;-84
2021/03/15 06:40:46;;;;;;;19.65;2.78;;;4.80;91.80;;;;;;4973412;28;20046;-84
2021/03/15 06:43:14;;;;;;;28.45;3.25;;;4.70;91.80;;;;;;4973801;28;20406;-84
2021/03/15 06:45:59;;;;;;;23.67;3.13;;;4.70;91.80;;;;;;4971106;28;20058;-83
2021/03/15 06:48:37;;;;;;;23.08;3.45;;;4.80;92.00;;;;;;4974305;28;20070;-81
2021/03/15 06:51:37;;;;;;;23.45;2.97;;;4.80;92.00;;;;;;4972711;28;20054;-83
2021/03/15 07:00:42;;;;;;;23.77;3.75;;;4.90;92.00;;;;;;4992028;23;20047;-81
2021/03/15 07:18:07;;;;;;;31.85;4.57;;;5.10;92.10;;;;;;4981260;23;20519;-84
2021/03/15 07:29:38;;;;;;;;;;;;;;;;;;;;;
2021/03/15 08:08:24;;;;;;;26.85;2.88;;;5.70;92.20;;;;;;4801124;29;20487;-84
2021/03/15 08:57:35;;;;;;;27.90;3.58;;;6.20;92.20;;;;;;5795586;24;20027;31
2021/03/15 09:12:24;;;;;;;20.30;2.60;;;6.30;91.90;;;;;;5779879;24;20025;-82
2021/03/15 09:15:00;;;;;;;14.45;2.28;;;6.30;91.90;;;;;;4804825;29;20059;-86
2021/03/15 09:17:26;;;;;;;11.80;2.22;;;6.40;91.90;;;;;;4805073;29;20566;-83
2021/03/15 09:19:52;;;;;;;17.27;2.38;;;6.30;91.70;;;;;;4804671;29;20051;-81
2021/03/15 09:22:30;;;;;;;18.33;2.30;;;6.30;91.70;;;;;;4805370;29;20424;-82
2021/03/15 09:25:25;;;;;;;17.65;2.67;;;6.40;91.80;;;;;;4805592;29;20172;-81
2021/03/15 09:27:53;;;;;;;16.25;2.47;;;6.40;91.90;;;;;;4797211;29;20072;-81
2021/03/15 09:31:12;;;;;;;17.40;2.60;;;6.40;91.90;;;;;;4804757;29;20427;-83
2021/03/15 09:33:38;;;;;;;17.30;2.65;;;6.50;92.00;;;;;;4798318;29;20138;-80
2021/03/15 09:36:27;;;;;;;17.60;2.55;;;6.50;92.00;;;;;;4799999;29;20596;-83
2021/03/15 09:38:57;;;;;;;21.13;2.95;;;6.50;92.00;;;;;;4803166;29;20057;-85
2021/03/15 09:41:34;;;;;;;21.55;2.88;;;6.60;92.00;;;;;;4790140;29;20047;-86
2021/03/15 09:44:11;;;;;;;20.05;3.08;;;6.60;91.90;;;;;;4792290;29;20051;-86
2021/03/15 09:46:48;;;;;;;15.80;2.40;;;6.70;91.80;;;;;;4800702;29;20547;-85
2021/03/15 09:49:40;;;;;;;25.00;3.05;;;6.70;92.10;;;;;;4799863;29;20084;-85
2021/03/15 09:52:23;;;;;;;21.75;3.40;;;6.70;91.80;;;;;;4803379;29;20055;-85
2021/03/15 09:54:50;;;;;;;23.25;3.15;;;6.70;91.80;;;;;;4802114;29;20104;-82
2021/03/15 09:57:17;;;;;;;24.17;3.10;;;6.80;91.80;;;;;;4804862;29;20059;-82
2021/03/15 09:59:46;;;;;;;20.05;2.80;;;6.80;91.70;;;;;;4801445;29;20118;-85
2021/03/15 10:02:43;;;;;;;21.52;3.05;;;6.90;91.70;;;;;;4803331;29;20411;-85
2021/03/15 10:05:09;;;;;;;27.58;3.42;;;6.90;91.60;;;;;;4800156;29;20058;-85
2021/03/15 10:07:54;;;;;;;20.75;3.40;;;6.90;91.50;;;;;;4796841;29;20134;-86
2021/03/15 10:10:22;;;;;;;26.55;3.15;;;6.90;91.50;;;;;;4812444;29;20058;-85
2021/03/15 10:12:50;;;;;;;21.98;2.97;;;7.00;91.40;;;;;;4803467;29;20062;-85
2021/03/15 10:15:19;;;;;;;26.55;3.83;;;7.00;91.30;;;;;;4803824;29;20066;-86
2021/03/15 10:17:54;;;;;;;25.42;3.75;;;7.00;91.20;;;;;;4804712;29;20570;-85
2021/03/15 10:20:25;;;;;;;24.77;3.22;;;7.00;91.10;;;;;;4804570;29;20054;-87
2021/03/15 10:22:52;;;;;;;24.38;2.95;;;7.00;91.10;;;;;;4804904;29;20065;-86
2021/03/15 10:25:18;;;;;;;26.23;4.18;;;7.10;91.10;;;;;;4808927;29;20054;-86
2021/03/15 10:27:57;;;;;;;23.90;3.92;;;7.10;91.00;;;;;;4809055;29;20209;-85
2021/03/15 10:30:27;;;;;;;26.00;3.42;;;7.10;91.00;;;;;;4803738;29;20113;-84
2021/03/15 10:32:54;;;;;;;31.75;3.85;;;7.10;91.00;;;;;;4804078;29;20528;-85
2021/03/15 10:39:24;;;;;;;25.30;3.35;;;7.20;90.90;;;;;;4804330;29;20062;-85
2021/03/15 10:42:11;;;;;;;26.15;3.38;;;7.20;90.90;;;;;;4801748;29;20059;-85
2021/03/15 10:44:44;;;;;;;21.27;3.70;;;7.30;90.90;;;;;;4797900;29;20059;-82
2021/03/15 10:47:13;;;;;;;25.77;3.92;;;7.40;90.80;;;;;;4803696;29;20057;-81
2021/03/15 10:57:32;;;;;;;22.52;3.40;;;7.50;90.10;;;;;;4784864;29;20412;-85
2021/03/15 11:00:01;;;;;;;22.98;3.13;;;7.50;90.00;;;;;;4803526;24;20415;-85
2021/03/15 11:03:05;;;;;;;16.23;2.42;;;7.60;89.60;;;;;;4805128;29;20120;-87
2021/03/15 11:05:32;;;;;;;22.42;2.90;;;7.50;89.20;;;;;;4806807;29;20065;-85
2021/03/15 11:08:54;;;;;;;14.70;2.58;;;7.60;89.00;;;;;;4828329;24;20057;-87
2021/03/15 11:17:33;;;;;;;19.08;2.50;;;7.60;88.30;;;;;;4851283;24;20086;-85
2021/03/15 11:20:07;;;;;;;16.05;2.80;;;7.60;88.10;;;;;;4851106;24;20082;-88
2021/03/15 11:23:28;;;;;;;13.82;2.75;;;7.70;88.00;;;;;;4791927;29;20043;-85
2021/03/15 11:30:14;;;;;;;20.90;3.13;;;7.80;87.70;;;;;;4848085;24;20515;-86
2021/03/15 11:33:25;;;;;;;17.80;2.35;;;7.80;87.60;;;;;;4797695;29;20057;-86
2021/03/15 11:35:54;;;;;;;21.30;3.10;;;7.80;87.30;;;;;;4787099;30;20091;-87
2021/03/15 11:38:34;;;;;;;22.85;2.80;;;7.80;87.20;;;;;;4786141;29;20063;-87
2021/03/15 11:55:16;;;;;;;21.45;4.03;;;8.00;87.30;;;;;;5248001;24;20074;-89
2021/03/15 11:58:54;;;;;;;23.73;3.30;;;8.00;86.90;;;;;;4733895;30;20671;-84
2021/03/15 12:01:20;;;;;;;22.73;3.22;;;7.90;86.60;;;;;;4735639;30;20059;-83
2021/03/15 12:03:49;;;;;;;28.92;3.90;;;8.00;87.00;;;;;;4751808;30;20068;-86
2021/03/15 12:06:41;;;;;;;17.42;3.17;;;8.00;86.90;;;;;;4755086;29;20054;-85
2021/03/15 12:09:07;;;;;;;15.95;2.78;;;8.00;86.80;;;;;;4802833;29;20062;-84
2021/03/15 12:20:12;;;;;;;21.83;3.05;;;8.10;85.60;;;;;;4807248;29;20103;-86
2021/03/15 12:22:55;;;;;;;23.77;3.13;;;8.20;85.80;;;;;;4806263;29;20094;-87
2021/03/15 12:25:25;;;;;;;21.33;3.20;;;8.20;85.70;;;;;;4807003;29;20345;-86
2021/03/15 12:28:16;;;;;;;23.17;3.58;;;8.20;85.60;;;;;;4806667;29;20567;-86
2021/03/15 12:31:02;;;;;;;20.67;3.22;;;8.20;85.60;;;;;;4806425;29;20499;-85
2021/03/15 12:34:21;;;;;;;21.63;3.25;;;8.20;85.20;;;;;;4786811;30;20134;-86
2021/03/15 12:37:03;;;;;;;22.13;3.10;;;8.20;85.30;;;;;;4788230;29;20511;-86
2021/03/15 12:39:29;;;;;;;19.30;3.03;;;8.30;85.00;;;;;;4787599;29;20058;-85
2021/03/15 12:41:57;;;;;;;19.50;3.38;;;8.30;85.50;;;;;;4788769;29;20051;-85
2021/03/15 12:44:23;;;;;;;15.93;2.65;;;8.30;85.90;;;;;;4788029;29;20083;-85
2021/03/15 12:46:51;;;;;;;21.23;2.78;;;8.40;85.70;;;;;;4788628;29;20082;-86
2021/03/15 12:49:22;;;;;;;18.55;3.00;;;8.40;85.70;;;;;;4788302;29;20055;-85
2021/03/15 12:51:57;;;;;;;17.88;2.78;;;8.40;84.90;;;;;;4788315;29;20576;-85
2021/03/15 12:54:23;;;;;;;16.95;3.38;;;8.40;84.50;;;;;;4796856;29;20481;-85
2021/03/15 12:56:51;;;;;;;19.83;2.92;;;8.50;84.50;;;;;;4805271;29;20500;-85
2021/03/15 12:59:29;;;;;;;16.23;2.97;;;8.50;84.40;;;;;;4806121;29;20534;-86
2021/03/15 13:01:58;;;;;;;22.10;3.03;;;8.50;83.90;;;;;;4806510;29;20059;-86
2021/03/15 13:04:23;;;;;;;21.08;2.80;;;8.50;83.50;;;;;;4804641;29;20057;-86
2021/03/15 13:07:19;;;;;;;21.05;3.30;;;8.50;83.20;;;;;;4805837;29;20061;-87
2021/03/15 13:09:55;;;;;;;22.73;3.15;;;8.50;83.00;;;;;;4819455;29;20552;-87
2021/03/15 13:12:27;;;;;;;20.45;3.47;;;8.50;83.70;;;;;;4803977;29;20054;-84
2021/03/15 13:14:57;;;;;;;23.67;3.28;;;8.50;83.30;;;;;;4805462;29;20062;-87
2021/03/15 13:17:28;;;;;;;21.92;3.45;;;8.50;83.40;;;;;;4787786;30;20063;-86
2021/03/15 13:19:53;;;;;;;21.25;2.35;;;8.50;83.30;;;;;;4787461;29;20066;-87
2021/03/15 13:22:28;;;;;;;20.23;3.17;;;8.50;83.20;;;;;;4787902;29;20237;-86
2021/03/15 13:24:54;;;;;;;20.80;3.17;;;8.60;82.90;;;;;;4786621;29;20059;-86
2021/03/15 13:27:22;;;;;;;19.05;3.42;;;8.60;82.70;;;;;;4787690;29;20062;-86
2021/03/15 13:29:54;;;;;;;19.35;3.40;;;8.60;82.40;;;;;;4788260;29;20055;-89
2021/03/15 13:32:26;;;;;;;22.05;2.97;;;8.60;82.60;;;;;;4955735;24;20051;-89
2021/03/15 13:38:16;;;;;;;;;;;;;;;;;;;;;
2021/03/15 13:41:00;;;;;;;19.92;3.20;;;8.70;83.30;;;;;;4798520;29;20074;-90
2021/03/15 13:47:27;;;;;;;17.85;2.92;;;8.70;81.80;;;;;;4804975;29;20055;-87
2021/03/15 13:50:05;;;;;;;18.70;3.13;;;8.70;81.80;;;;;;4805792;29;20071;-85
2021/03/15 13:53:05;;;;;;;19.02;2.70;;;8.70;82.10;;;;;;4805601;29;20119;-86
2021/03/15 13:55:31;;;;;;;21.35;3.30;;;8.70;81.70;;;;;;4813775;29;20141;-86
2021/03/15 14:01:26;;;;;;;18.02;3.10;;;8.70;81.00;;;;;;4800736;29;20047;-88
2021/03/15 14:03:54;;;;;;;19.23;2.95;;;8.60;81.30;;;;;;4805639;29;20423;-85
2021/03/15 14:06:20;;;;;;;14.63;2.60;;;8.60;81.30;;;;;;4805488;29;20162;-85
2021/03/15 14:08:48;;;;;;;20.63;2.80;;;8.70;80.40;;;;;;4804618;29;20571;-85
2021/03/15 14:11:14;;;;;;;17.20;2.92;;;8.70;80.90;;;;;;4805329;29;20054;-85
2021/03/15 14:14:06;;;;;;;19.88;2.58;;;8.60;80.00;;;;;;4805446;29;20107;-88
2021/03/15 14:17:13;;;;;;;21.58;2.92;;;8.60;78.80;;;;;;4784096;29;20424;-88
2021/03/15 14:20:22;;;;;;;20.52;3.20;;;8.60;79.70;;;;;;4783685;30;20417;-88
2021/03/15 14:22:53;;;;;;;21.85;2.78;;;8.70;80.30;;;;;;4800633;29;20111;-88
2021/03/15 14:25:21;;;;;;;23.30;3.10;;;8.70;80.50;;;;;;4805409;29;20063;-87
2021/03/15 14:28:24;;;;;;;21.90;3.30;;;8.70;80.60;;;;;;4805504;29;20420;-86
2021/03/15 14:31:20;;;;;;;24.90;3.20;;;8.70;80.50;;;;;;4804312;29;20061;-87
2021/03/15 14:33:52;;;;;;;19.20;3.60;;;8.80;81.40;;;;;;4805126;29;20427;-87
2021/03/15 14:37:01;;;;;;;18.52;3.05;;;8.80;81.10;;;;;;4806173;29;20050;-86
2021/03/15 14:39:26;;;;;;;21.48;3.28;;;8.80;81.60;;;;;;4824215;29;20064;-88
2021/03/15 14:45:24;;;;;;;22.85;3.53;;;8.80;82.20;;;;;;4768211;30;20054;-88
2021/03/15 14:55:27;;;;;;;24.35;3.53;;;8.80;82.70;;;;;;4770734;30;20118;-87
2021/03/15 15:25:07;;;;;;;20.52;3.03;;;8.70;83.50;;;;;;4803673;29;20057;-90
2021/03/15 16:01:04;;;;;;;;;;;;;;;;;;;;;
2021/03/15 16:04:27;;;;;;;20.60;3.20;;;8.50;84.70;;;;;;4806678;29;20050;-86
2021/03/15 16:39:01;;;;;;;23.95;3.80;;;8.50;86.50;;;;;;5664282;24;20050;-90
2021/03/15 16:41:28;;;;;;;26.17;3.85;;;8.50;86.60;;;;;;4806493;29;20444;-87
2021/03/15 16:43:55;;;;;;;24.17;3.85;;;8.50;86.60;;;;;;4806250;29;20054;-89
2021/03/15 16:46:27;;;;;;;21.63;3.95;;;8.50;87.00;;;;;;4806170;29;20137;-89
2021/03/15 16:49:33;;;;;;;26.08;3.97;;;8.40;87.00;;;;;;4805968;29;20086;-88
2021/03/15 17:08:16;;;;;;;27.40;4.65;;;8.20;86.60;;;;;;4712584;30;20570;-89
2021/03/15 17:14:32;;;;;;;22.13;3.63;;;8.20;87.00;;;;;;4803910;29;20137;-90
2021/03/15 17:17:01;;;;;;;23.70;4.05;;;8.20;87.10;;;;;;4803275;29;20086;-85
2021/03/15 17:19:26;;;;;;;28.23;4.03;;;8.20;87.00;;;;;;4785188;29;20056;-85
2021/03/15 17:21:58;;;;;;;28.00;4.00;;;8.10;86.90;;;;;;4795798;24;20180;-86
2021/03/15 17:24:32;;;;;;;27.23;4.20;;;8.20;86.90;;;;;;4789624;29;20067;-88
2021/03/15 17:27:07;;;;;;;25.50;4.20;;;8.10;86.70;;;;;;4798221;29;20055;-88
2021/03/15 17:43:32;;;;;;;26.45;3.88;;;8.10;87.50;;;;;;5151056;27;20380;-86
2021/03/15 17:45:59;;;;;;;26.98;4.47;;;8.00;87.70;;;;;;5128165;27;20047;-85
2021/03/15 17:48:25;;;;;;;24.67;3.83;;;8.00;87.80;;;;;;5130185;28;20047;-87
2021/03/15 17:51:21;;;;;;;25.13;3.90;;;8.00;87.30;;;;;;5128611;27;20412;-85
2021/03/15 17:57:28;;;;;;;21.40;4.00;;;7.90;87.20;;;;;;5098750;27;20067;-84
2021/03/15 18:00:17;;;;;;;22.08;3.75;;;7.90;87.50;;;;;;5109338;28;20410;-85
2021/03/15 18:02:51;;;;;;;24.35;4.05;;;7.80;87.40;;;;;;5122793;28;20448;-83
2021/03/15 18:05:22;;;;;;;27.77;3.92;;;7.90;87.80;;;;;;5130165;27;20047;-84
2021/03/15 18:08:43;;;;;;;23.33;4.40;;;7.80;87.70;;;;;;5129838;27;20048;-84
2021/03/15 18:11:12;;;;;;;29.75;4.20;;;7.80;87.30;;;;;;5129764;27;20109;-83
2021/03/15 19:28:15;;;;;;;34.70;4.35;;;7.30;88.30;;;;;;5373783;23;20056;-84
2021/03/15 19:31:12;;;;;;;26.25;3.53;;;7.20;88.10;;;;;;4909864;29;20055;-85
2021/03/15 19:33:38;;;;;;;29.73;4.60;;;7.20;88.50;;;;;;4916209;29;20048;-83
2021/03/15 19:36:18;;;;;;;25.25;3.50;;;7.20;88.40;;;;;;4914663;29;20048;-84
2021/03/15 19:38:45;;;;;;;28.38;5.00;;;7.20;88.80;;;;;;4871795;29;20080;-83
2021/03/15 19:41:20;;;;;;;27.10;4.47;;;7.20;88.60;;;;;;4916337;29;20055;-83
2021/03/15 19:43:53;;;;;;;27.23;4.57;;;7.10;88.40;;;;;;4909929;29;20052;-85
2021/03/15 19:46:34;;;;;;;25.07;4.17;;;7.10;88.80;;;;;;4909143;29;20136;-84
2021/03/15 19:48:59;;;;;;;24.17;4.03;;;7.00;88.70;;;;;;4911219;29;20067;-84
2021/03/15 19:51:37;;;;;;;28.20;4.00;;;7.10;89.10;;;;;;4909729;29;20052;-84
2021/03/15 21:02:33;;;;;;;23.83;3.90;;;6.60;89.10;;;;;;4895138;29;20047;-86
2021/03/15 21:06:03;;;;;;;;;;;;;;;;;;;;;
2021/03/15 21:10:33;;;;;;;;;;;;;;;;;;;;;
2021/03/15 21:32:12;;;;;;;28.90;3.97;;;6.40;89.30;;;;;;4634063;30;20151;-87
2021/03/15 21:35:26;;;;;;;33.38;4.88;;;6.40;89.20;;;;;;4731831;30;20067;-85
2021/03/15 21:38:01;;;;;;;29.70;4.90;;;6.40;89.20;;;;;;4697767;30;20129;-85
2021/03/15 21:40:29;;;;;;;29.80;4.03;;;6.40;89.40;;;;;;4747227;30;20135;-86
2021/03/15 21:54:29;;;;;;;28.52;4.07;;;6.40;89.60;;;;;;4810985;29;20051;-85
2021/03/15 21:57:58;;;;;;;32.10;4.88;;;6.40;89.70;;;;;;4814877;29;20066;-85
2021/03/15 22:01:01;;;;;;;26.60;4.18;;;6.30;89.60;;;;;;4784893;30;20535;-86
2021/03/15 22:03:59;;;;;;;;;;;;;;;;;;;;;
2021/03/15 22:06:56;;;;;;;26.42;3.83;;;6.30;89.80;;;;;;4876360;29;20053;-85
2021/03/15 22:09:26;;;;;;;25.60;4.30;;;6.30;89.90;;;;;;4886281;29;20092;-87
2021/03/15 22:11:57;;;;;;;27.98;3.45;;;6.30;90.00;;;;;;4896848;29;20056;-86
2021/03/15 22:14:40;;;;;;;29.48;4.15;;;6.30;90.10;;;;;;4891996;29;20061;-86
2021/03/15 22:17:07;;;;;;;32.47;4.22;;;6.30;90.20;;;;;;4896933;29;20052;-86
2021/03/15 22:19:33;;;;;;;33.35;4.88;;;6.20;89.90;;;;;;4898553;29;20059;-86
2021/03/15 22:21:59;;;;;;;28.58;4.00;;;6.20;90.00;;;;;;4889777;29;20083;-87
2021/03/15 22:24:28;;;;;;;29.95;4.50;;;6.20;90.10;;;;;;4881615;29;20548;-86
2021/03/15 22:28:02;;;;;;;29.45;4.07;;;6.20;90.00;;;;;;4881184;29;20061;-86
2021/03/15 22:38:52;;;;;;;29.77;3.97;;;6.10;90.10;;;;;;4810131;29;20132;-86
2021/03/15 22:41:20;;;;;;;30.52;4.07;;;6.10;90.00;;;;;;4847121;29;20065;-87
2021/03/15 22:43:57;;;;;;;32.35;4.18;;;6.00;90.10;;;;;;4881221;29;20101;-85
2021/03/15 22:46:23;;;;;;;22.27;3.90;;;6.00;90.10;;;;;;4881288;29;20108;-86
2021/03/15 22:48:55;;;;;;;24.90;4.30;;;6.10;90.20;;;;;;4880456;29;20053;-87
2021/03/15 22:51:55;;;;;;;24.95;3.80;;;6.00;90.10;;;;;;4886235;29;20510;-86
2021/03/15 22:54:23;;;;;;;23.38;3.72;;;6.00;90.30;;;;;;4879202;29;20056;-86
2021/03/15 22:57:25;;;;;;;26.15;4.15;;;6.00;90.30;;;;;;4900231;29;20056;-86
2021/03/15 22:59:57;;;;;;;35.80;5.03;;;6.00;90.40;;;;;;4919012;29;20215;-86
2021/03/15 23:02:32;;;;;;;23.65;3.47;;;6.00;90.50;;;;;;4917954;29;20051;-86
2021/03/15 23:05:08;;;;;;;30.48;4.10;;;6.00;90.40;;;;;;4917504;29;20060;-87
2021/03/15 23:08:05;;;;;;;27.95;4.10;;;6.00;90.50;;;;;;4912088;29;20124;-86
2021/03/15 23:10:33;;;;;;;32.00;4.07;;;6.00;90.40;;;;;;4902562;29;20052;-86
2021/03/15 23:12:59;;;;;;;24.77;4.18;;;6.00;90.50;;;;;;4918385;29;20135;-86
2021/03/15 23:15:34;;;;;;;28.33;4.25;;;6.00;90.40;;;;;;4917685;29;20127;-87
2021/03/15 23:18:11;;;;;;;27.25;4.30;;;6.00;90.30;;;;;;4918196;29;20083;-87
2021/03/15 23:20:49;;;;;;;31.48;4.38;;;6.00;90.40;;;;;;4918515;29;20512;-87
2021/03/15 23:23:18;;;;;;;24.35;3.72;;;6.00;90.30;;;;;;4917715;29;20044;-87
2021/03/15 23:25:52;;;;;;;18.40;3.60;;;6.00;90.30;;;;;;4921226;29;20139;-86